Ever Legion — 9V9725 — position and weather

sailwx.info

Track history (hours):
 
Tides and Currents Weather Stations Pressure Air Temp Water Temp Dewpoint Dewpoint Depression Visibility Wind Speed Wind Dir Waves Ship Positions

Ever Legion

Last reported at 2018-May-22 05:32 UTC. Time now 2018-May-22 19:39 UTC.
Position N 30°24' E 121°56'.

Length 335 m; draft 8.3 m.

Type: Ship. MMSI: 566970000.

Date/timePositionNaut miles runAvg speedWind from/ knotsBaromVisibWave heightAir tempDewpointWater temp
2018-May-22 05:32N 30°24' E 121°56'215.1
2018-May-22 05:26N 30°23' E 121°58'1114.2
2018-May-22 04:41N 30°23' E 122°10'15 4.0
2018-May-22 00:55N 30°37' E 122°05'0 0.0
2018-May-21 22:16N 30°37' E 122°05'0 0.0
2018-May-21 21:58N 30°37' E 122°05'0 0.0
2018-May-21 13:07N 30°37' E 122°05'0 0.5
2018-May-21 13:00N 30°37' E 122°05'0 0.3
2018-May-21 11:53N 30°37' E 122°04'3 6.6
2018-May-21 11:30N 30°35' E 122°07'712.0
2018-May-21 10:58N 30°34' E 122°14'43 1.8
2018-May-20 11:49N 30°51' E 122°60'614.7
2018-May-20 11:26N 30°55' E 123°05'1013.8
2018-May-20 10:43N 31°03' E 123°10'414.6
2018-May-20 10:28N 31°06' E 123°13'913.1
2018-May-20 09:47N 31°15' E 123°13'413.1
2018-May-20 09:27N 31°19' E 123°13'613.0
2018-May-20 09:00N 31°25' E 123°13'712.5
2018-May-20 08:27N 31°32' E 123°13'3413.8
2018-May-20 06:00N 32°06' E 123°12'21417.8 040 / 181015.0 5.4 20.016.718.0
2018-May-19 18:00N 35°18' E 121°18'5317.7 090 / 141015.0 5.4 16.014.317.0
2018-May-19 15:00N 35°54' E 120°30'716.3 320 / 81015.0 2.2 15.013.214.2
2018-May-19 14:32N 36°00' E 120°25'415.1
2018-May-19 14:18N 36°01' E 120°20'4 9.4
2018-May-19 13:55N 36°02' E 120°16'4 2.8
2018-May-19 12:35N 36°00' E 120°12'0 0.0
2018-May-19 12:07N 36°00' E 120°12'0 0.0
2018-May-19 11:13N 36°00' E 120°12'0 0.0
2018-May-19 10:02N 36°00' E 120°12'0 0.0
2018-May-19 09:44N 36°00' E 120°12'0 0.0
2018-May-19 09:28N 36°00' E 120°12'0 0.0
2018-May-19 08:34N 36°00' E 120°12'0 0.0
2018-May-19 07:49N 36°00' E 120°12'0 0.0
2018-May-19 07:28N 36°00' E 120°12'0 0.0
2018-May-19 06:28N 36°00' E 120°12'0 0.0
2018-May-19 05:52N 36°00' E 120°12'0 0.0
2018-May-19 04:43N 36°00' E 120°12'0 0.0
2018-May-19 04:27N 36°00' E 120°12'0 0.0
2018-May-19 03:46N 36°00' E 120°12'0 0.0
2018-May-19 03:25N 36°00' E 120°12'0 0.0
2018-May-19 02:31N 36°00' E 120°12'0 0.0
2018-May-19 02:13N 36°00' E 120°12'0 0.0
2018-May-19 01:58N 36°00' E 120°12'0 0.0
2018-May-19 01:25N 36°00' E 120°12'0 0.0
2018-May-19 00:58N 36°00' E 120°12'0 0.0
2018-May-19 00:25N 36°00' E 120°12'0 0.0
2018-May-18 23:55N 36°00' E 120°12'0 0.0
2018-May-18 23:19N 36°00' E 120°12'0 0.6
2018-May-18 22:47N 36°00' E 120°12'2 6.3
2018-May-18 22:26N 36°02' E 120°14'510.3
2018-May-18 21:58N 36°01' E 120°20'611.4
2018-May-18 21:24N 36°00' E 120°28'4 9.5
2018-May-18 20:58N 35°59' E 120°33'20 0.7
2018-May-17 18:00N 35°48' E 120°54'0 0.0 320 / 111006.0 0.0 15.013.213.0
2018-May-17 06:00N 35°48' E 120°54'39 3.2 220 / 101014.0 18.014.615.0
2018-May-16 18:00N 35°30' E 121°36'8614.4 130 / 161003.0 1.1 17.013.515.0
2018-May-16 12:00N 34°54' E 123°12'7312.1 150 / 171005.0 5.4 18.016.315.0
2018-May-16 06:00N 34°12' E 124°24'9415.7 180 / 261007.0 21.017.815.0
2018-May-16 00:00N 33°42' E 126°12'7011.7 180 / 251009.0 0.5 21.021.017.0
2018-May-15 18:00N 33°48' E 127°36'8013.4 170 / 211011.0 19.017.418.0
2018-May-15 12:00N 34°36' E 128°54'3112.9 190 / 151012.0 5.4 19.017.418.0
2018-May-15 09:36N 34°53' E 129°25'313.5
2018-May-15 09:22N 34°56' E 129°28'1413.2
2018-May-15 08:16N 35°04' E 129°42'313.1
2018-May-15 08:00N 35°06' E 129°45'712.9
2018-May-15 07:30N 35°10' E 129°52'613.0
2018-May-15 07:00N 35°14' E 129°57'713.3
2018-May-15 06:30N 35°19' E 130°03'510.4
2018-May-15 06:00N 35°24' E 130°06'3133.2 200 / 201012.0 2.2 20.018.419.0
2018-May-15 05:58N 35°24' E 130°10'613.1
2018-May-15 05:30N 35°28' E 130°15'712.8
2018-May-15 05:00N 35°33' E 130°20'713.4
2018-May-15 04:30N 35°38' E 130°25'713.9
2018-May-15 04:00N 35°43' E 130°31'5613.8
2018-May-15 00:00N 36°24' E 131°18'7212.0 190 / 251011.0 2.2 19.015.715.0
2018-May-14 18:00N 37°18' E 132°18'7612.7 180 / 221010.0 5.4 14.010.215.0
2018-May-14 12:00N 38°18' E 133°18'7612.7 110 / 191011.0 0.1 13.011.112.3
2018-May-14 06:00N 39°18' E 134°18'9115.1 200 / 111011.0 1.1 13.011.113.0
2018-May-14 00:00N 40°30' E 135°30'8313.8 210 / 101010.0 0.0 9.0 6.9 8.0
2018-May-13 18:00N 41°36' E 136°36'8514.1 350 / 61007.0 0.3 6.0 3.6 6.0
2018-May-13 12:00N 42°42' E 137°48'8213.6 290 / 71006.0 0.1 9.0 6.9 9.0
2018-May-13 06:00N 43°48' E 138°54'7612.7 190 / 251006.0 1.1 10.010.010.0
2018-May-13 00:00N 44°48' E 140°00'7412.3 160 / 201011.0 2.2 10.010.010.0
2018-May-12 18:00N 45°42' E 141°12'8013.4 180 / 141010.0 5.4 9.0 4.5 8.0
2018-May-12 12:00N 45°54' E 143°06'7913.2 250 / 171012.0 5.4 7.0 2.1 5.0
2018-May-12 06:00N 46°30' E 144°48'   310 / 51009.010.8 5.0 2.5-0.0
Track history (hours):
 
Tides and Currents Weather Stations Pressure Air Temp Water Temp Dewpoint Dewpoint Depression Visibility Wind Speed Wind Dir Waves Ship Positions

Ever Legion

Last reported at 2018-May-22 05:32 UTC. Time now 2018-May-22 19:39 UTC.
Position N 30°24' E 121°56'.

Length 335 m; draft 8.3 m.

Type: Ship. MMSI: 566970000.

Date/timePositionNaut miles runAvg speedWind from/ knotsBaromVisibWave heightAir tempDewpointWater temp
2018-May-22 05:32N 30°24' E 121°56'215.1
2018-May-22 05:26N 30°23' E 121°58'1114.2
2018-May-22 04:41N 30°23' E 122°10'15 4.0
2018-May-22 00:55N 30°37' E 122°05'0 0.0
2018-May-21 22:16N 30°37' E 122°05'0 0.0
2018-May-21 21:58N 30°37' E 122°05'0 0.0
2018-May-21 13:07N 30°37' E 122°05'0 0.5
2018-May-21 13:00N 30°37' E 122°05'0 0.3
2018-May-21 11:53N 30°37' E 122°04'3 6.6
2018-May-21 11:30N 30°35' E 122°07'712.0
2018-May-21 10:58N 30°34' E 122°14'43 1.8
2018-May-20 11:49N 30°51' E 122°60'614.7
2018-May-20 11:26N 30°55' E 123°05'1013.8
2018-May-20 10:43N 31°03' E 123°10'414.6
2018-May-20 10:28N 31°06' E 123°13'913.1
2018-May-20 09:47N 31°15' E 123°13'413.1
2018-May-20 09:27N 31°19' E 123°13'613.0
2018-May-20 09:00N 31°25' E 123°13'712.5
2018-May-20 08:27N 31°32' E 123°13'3413.8
2018-May-20 06:00N 32°06' E 123°12'21417.8 040 / 181015.0 5.4 20.016.718.0
2018-May-19 18:00N 35°18' E 121°18'5317.7 090 / 141015.0 5.4 16.014.317.0
2018-May-19 15:00N 35°54' E 120°30'716.3 320 / 81015.0 2.2 15.013.214.2
2018-May-19 14:32N 36°00' E 120°25'415.1
2018-May-19 14:18N 36°01' E 120°20'4 9.4
2018-May-19 13:55N 36°02' E 120°16'4 2.8
2018-May-19 12:35N 36°00' E 120°12'0 0.0
2018-May-19 12:07N 36°00' E 120°12'0 0.0
2018-May-19 11:13N 36°00' E 120°12'0 0.0
2018-May-19 10:02N 36°00' E 120°12'0 0.0
2018-May-19 09:44N 36°00' E 120°12'0 0.0
2018-May-19 09:28N 36°00' E 120°12'0 0.0
2018-May-19 08:34N 36°00' E 120°12'0 0.0
2018-May-19 07:49N 36°00' E 120°12'0 0.0
2018-May-19 07:28N 36°00' E 120°12'0 0.0
2018-May-19 06:28N 36°00' E 120°12'0 0.0
2018-May-19 05:52N 36°00' E 120°12'0 0.0
2018-May-19 04:43N 36°00' E 120°12'0 0.0
2018-May-19 04:27N 36°00' E 120°12'0 0.0
2018-May-19 03:46N 36°00' E 120°12'0 0.0
2018-May-19 03:25N 36°00' E 120°12'0 0.0
2018-May-19 02:31N 36°00' E 120°12'0 0.0
2018-May-19 02:13N 36°00' E 120°12'0 0.0
2018-May-19 01:58N 36°00' E 120°12'0 0.0
2018-May-19 01:25N 36°00' E 120°12'0 0.0
2018-May-19 00:58N 36°00' E 120°12'0 0.0
2018-May-19 00:25N 36°00' E 120°12'0 0.0
2018-May-18 23:55N 36°00' E 120°12'0 0.0
2018-May-18 23:19N 36°00' E 120°12'0 0.6
2018-May-18 22:47N 36°00' E 120°12'2 6.3
2018-May-18 22:26N 36°02' E 120°14'510.3
2018-May-18 21:58N 36°01' E 120°20'611.4
2018-May-18 21:24N 36°00' E 120°28'4 9.5
2018-May-18 20:58N 35°59' E 120°33'20 0.7
2018-May-17 18:00N 35°48' E 120°54'0 0.0 320 / 111006.0 0.0 15.013.213.0
2018-May-17 06:00N 35°48' E 120°54'39 3.2 220 / 101014.0 18.014.615.0
2018-May-16 18:00N 35°30' E 121°36'8614.4 130 / 161003.0 1.1 17.013.515.0
2018-May-16 12:00N 34°54' E 123°12'7312.1 150 / 171005.0 5.4 18.016.315.0
2018-May-16 06:00N 34°12' E 124°24'9415.7 180 / 261007.0 21.017.815.0
2018-May-16 00:00N 33°42' E 126°12'7011.7 180 / 251009.0 0.5 21.021.017.0
2018-May-15 18:00N 33°48' E 127°36'8013.4 170 / 211011.0 19.017.418.0
2018-May-15 12:00N 34°36' E 128°54'3112.9 190 / 151012.0 5.4 19.017.418.0
2018-May-15 09:36N 34°53' E 129°25'313.5
2018-May-15 09:22N 34°56' E 129°28'1413.2
2018-May-15 08:16N 35°04' E 129°42'313.1
2018-May-15 08:00N 35°06' E 129°45'712.9
2018-May-15 07:30N 35°10' E 129°52'613.0
2018-May-15 07:00N 35°14' E 129°57'713.3
2018-May-15 06:30N 35°19' E 130°03'510.4
2018-May-15 06:00N 35°24' E 130°06'3133.2 200 / 201012.0 2.2 20.018.419.0
2018-May-15 05:58N 35°24' E 130°10'613.1
2018-May-15 05:30N 35°28' E 130°15'712.8
2018-May-15 05:00N 35°33' E 130°20'713.4
2018-May-15 04:30N 35°38' E 130°25'713.9
2018-May-15 04:00N 35°43' E 130°31'5613.8
2018-May-15 00:00N 36°24' E 131°18'7212.0 190 / 251011.0 2.2 19.015.715.0
2018-May-14 18:00N 37°18' E 132°18'7612.7 180 / 221010.0 5.4 14.010.215.0
2018-May-14 12:00N 38°18' E 133°18'7612.7 110 / 191011.0 0.1 13.011.112.3
2018-May-14 06:00N 39°18' E 134°18'9115.1 200 / 111011.0 1.1 13.011.113.0
2018-May-14 00:00N 40°30' E 135°30'8313.8 210 / 101010.0 0.0 9.0 6.9 8.0
2018-May-13 18:00N 41°36' E 136°36'8514.1 350 / 61007.0 0.3 6.0 3.6 6.0
2018-May-13 12:00N 42°42' E 137°48'8213.6 290 / 71006.0 0.1 9.0 6.9 9.0
2018-May-13 06:00N 43°48' E 138°54'7612.7 190 / 251006.0 1.1 10.010.010.0
2018-May-13 00:00N 44°48' E 140°00'7412.3 160 / 201011.0 2.2 10.010.010.0
2018-May-12 18:00N 45°42' E 141°12'8013.4 180 / 141010.0 5.4 9.0 4.5 8.0
2018-May-12 12:00N 45°54' E 143°06'7913.2 250 / 171012.0 5.4 7.0 2.1 5.0
2018-May-12 06:00N 46°30' E 144°48'   310 / 51009.010.8 5.0 2.5-0.0

Dump ship's entire track history